2017 Sigge's P'ayakentsut | Zone4.ca



2017 Sigge's P'ayakentsut

Date: Feb 25, 2017
Official  Results
Location: Whistler Olympic Park
Host Club: Callaghan Valley XC Ski

Competition Committee
Technical Delegate:  Valerie Wootton 
Chief of Race:  Sherryl Yeager 
Event Chair  Dirk Rohde 
Obs. Time: 11 am
Wind Vel: 6 kmph Wind Dir: Calm
Air Temp: -2
Weather: Overcast Snow Cond: Sugary

15 km Male 15 km. Mass Start    
PL Bib Name SubCategory Rnk technique Time Diff
1 527 Joe Davies 15 km Male (Y13-15) 1/13 Free 0:36:16.07  
2 427 Matthias Jakob 15 km Male (50-54) 1/15 Free 0:39:53.11 +3:37.04
3 428 Lane Price 15 km Male (40-44) 1/11 Free 0:40:34.98 +4:18.91
4 449 Andrew Kennedy 15 km Male (40-44) 2/11 Free 0:42:55.62 +6:39.55
5 456 Brian Wieghaus 15 km Male (55-59) 1/7 Free 0:43:23.91 +7:07.84
6 529 Sean Benson 15 km Male (Y13-15) 2/13 Free 0:44:04.97 +7:48.90
7 437 Paul Girodo 15 km Male (40-44) 3/11 Free 0:44:12.65 +7:56.58
8 522 Eli Stockie 15 km Male (Y13-15) 3/13 Free 0:44:38.51 +8:22.44
9 448 John Stockie 15 km Male (45-49) 1/14 Free 0:44:42.65 +8:26.58
10 533 RaphaŽl Gasc 15 km Male (Y13-15) 4/13 Free 0:44:49.46 +8:33.39
11 471 Dave Hutch 15 km Male (50-54) 2/15 Free 0:45:19.40 +9:03.33
12 502 Harrison Phillips 15 km Male (Y16-17) 1/1 Free 0:46:07.90 +9:51.83
13 460 Chris Vipler 15 km Male (40-44) 4/11 Free 0:47:01.58 +10:45.51
14 464 Ian Lowe 15 km Male (40-44) 5/11 Classic 0:47:22.31 +11:06.24
15 483 Andrew Benson 15 km Male (45-49) 2/14 Free 0:47:32.79 +11:16.72
16 407 Michael Wrinch 15 km Male (40-44) 6/11 Free 0:47:46.80 +11:30.73
17 528 Sasha Qureshi 15 km Male (Y13-15) 5/13 Free 0:47:51.13 +11:35.06
18 474 Eric Unrau 15 km Male (50-54) 3/15 Free 0:48:07.35 +11:51.28
19 435 Roman Seidler 15 km Male (45-49) 3/14 Free 0:48:28.93 +12:12.86
20 411 Ian Macleod 15 km Male (45-49) 4/14 Free 0:48:43.72 +12:27.65
21 455 Ian Pirie 15 km Male (30-34) 1/5 Free 0:48:54.50 +12:38.43
22 470 Benoit Gignac 15 km Male (35-39) 1/7 Classic 0:48:55.42 +12:39.35
23 416 Chris Phillips 15 km Male (60-64) 1/11 Free 0:49:26.00 +13:09.93
24 409 Pascal Kirouac 15 km Male (35-39) 2/7 Free 0:49:55.47 +13:39.40
25 443 Bruno Baron 15 km Male (35-39) 3/7 Free 0:50:35.40 +14:19.33
26 531 Wei Tien Ho 15 km Male (Y13-15) 6/13 Free 0:50:39.92 +14:23.85
27 413 Darryl Gulay 15 km Male (45-49) 5/14 Free 0:51:05.50 +14:49.43
28 446 Ed Gillis 15 km Male (40-44) 7/11 Free 0:51:06.00 +14:49.93
29 442 Dmitry Shapovalov 15 km Male (35-39) 4/7 Free 0:51:09.29 +14:53.22
30 440 Craig Cameron 15 km Male (45-49) 6/14 Free 0:51:52.89 +15:36.82
31 475 Mikhail Titov 15 km Male (45-49) 7/14 Classic 0:51:56.82 +15:40.75
32 468 Jay Chmelauskas 15 km Male (45-49) 8/14 Free 0:52:09.34 +15:53.27
33 481 David Currie 15 km Male (55-59) 2/7 Free 0:52:37.43 +16:21.36
34 524 Henry Ruckman-Utting 15 km Male (Y13-15) 7/13 Free 0:52:39.63 +16:23.56
35 452 Craig Mackenzie 15 km Male (65-69) 1/3 Free 0:52:39.94 +16:23.87
36 441 Dennis Blackwood 15 km Male (50-54) 4/15 Free 0:53:26.19 +17:10.12
37 410 Lee Kennett 15 km Male (30-34) 2/5 Free 0:53:33.19 +17:17.12
38 425 Arnie Wilson 15 km Male (45-49) 9/14 Free 0:53:39.63 +17:23.56
39 461 Greg Robertson 15 km Male (60-64) 2/11 Free 0:53:43.65 +17:27.58
40 523 Alexis Gasc 15 km Male (Y13-15) 8/13 Free 0:53:51.67 +17:35.60
41 406 Matthew Murnaghan 15 km Male (50-54) 5/15 Free 0:54:04.17 +17:48.10
42 418 Peter Vandenberg 15 km Male (60-64) 3/11 Free 0:54:11.67 +17:55.60
43 454 Lawrence Taylor 15 km Male (55-59) 3/7 Free 0:54:33.33 +18:17.26
44 402 Eric Straver 15 km Male (40-44) 8/11 Free 0:54:38.39 +18:22.32
45 436 Luis Carrasco 15 km Male (50-54) 6/15 Free 0:54:48.38 +18:32.31
46 451 Paul Chamberlain 15 km Male (50-54) 7/15 Free 0:55:27.24 +19:11.17
47 477 Ron Wallace 15 km Male (50-54) 8/15 Free 0:55:57.07 +19:41.00
48 173 Maine McEachern 15 km Male (35-39) 5/7 Free 0:56:02.78 +19:46.71
49 408 Dave Holloway 15 km Male (45-49) 10/14 Free 0:57:36.88 +21:20.81
50 432 Dumitru Cotfas 15 km Male (55-59) 4/7 Free 0:58:53.70 +22:37.63
51 445 John R Graham 15 km Male (70-74) 1/1 Free 0:59:08.94 +22:52.87
52 472 Franck Prat 15 km Male (65-69) 2/3 Free 0:59:10.49 +22:54.42
53 417 Craig Pond 15 km Male (45-49) 11/14 Free 0:59:37.03 +23:20.96
54 403 Patrick MacLachlan 15 km Male (50-54) 9/15 Free 1:00:19.14 +24:03.07
55 476 Anthony de Mesa 15 km Male (25-29) 1/1 Free 1:00:45.44 +24:29.37
56 431 Jules LeClair 15 km Male (60-64) 4/11 Free 1:01:03.50 +24:47.43
57 458 James Code 15 km Male (55-59) 5/7 Free 1:01:27.61 +25:11.54
58 439 Dave Clark 15 km Male (45-49) 12/14 Free 1:02:37.36 +26:21.29
59 421 Mads Oien Nielsen 15 km Male (18-24) 1/1 Classic 1:03:13.52 +26:57.45
60 426 Jay Kinamore 15 km Male (55-59) 6/7 Free 1:03:58.75 +27:42.68
61 404 Ray Peterson 15 km Male (60-64) 5/11 Free 1:04:51.36 +28:35.29
62 467 Alex Yim 15 km Male (60-64) 6/11 Free 1:05:17.22 +29:01.15
63 424 Bojan Andjelkovic 15 km Male (45-49) 13/14 Free 1:07:48.67 +31:32.60
64 535 Simon Tanglao 15 km Male (Y13-15) 9/13 Classic 1:07:55.47 +31:39.40
65 438 Lars Peterson 15 km Male (30-34) 3/5 Free 1:08:00.72 +31:44.65
66 434 Daniel Roberts 15 km Male (40-44) 9/11 Free 1:08:03.03 +31:46.96
67 469 Ryan Marchant 15 km Male (30-34) 4/5 Classic 1:10:12.89 +33:56.82
68 444 Bill Lamond 15 km Male (55-59) 7/7 Free 1:10:26.36 +34:10.29
69 479 ernst wallgram 15 km Male (65-69) 3/3 Free 1:11:47.69 +35:31.62
70 415 Rob Greene 15 km Male (50-54) 10/15 Free 1:12:29.64 +36:13.57
71 457 Allan McMordie 15 km Male (60-64) 7/11 Free 1:12:57.85 +36:41.78
72 450 Anders Bjorklund 15 km Male (50-54) 11/15 Classic 1:13:25.47 +37:09.40
73 463 Geza Baranyi 15 km Male (60-64) 8/11 Classic 1:14:23.57 +38:07.50
74 401 Chee Chan 15 km Male (35-39) 6/7 Classic 1:15:39.76 +39:23.69
75 525 Simon Greene 15 km Male (Y13-15) 10/13 Free 1:15:58.43 +39:42.36
76 484 Joel Jeangrand 15 km Male (50-54) 12/15 Classic 1:18:25.29 +42:09.22
77 453 Robert Fyfe 15 km Male (60-64) 9/11 Classic 1:18:27.91 +42:11.84
78 462 Matthew Osler 15 km Male (30-34) 5/5 Classic 1:19:21.60 +43:05.53
79 534 Lincoln Macdonald 15 km Male (Y13-15) 11/13 Classic 1:20:16.81 +44:00.74
80 412 Steven Kariya 15 km Male (35-39) 7/7 Classic 1:22:13.90 +45:57.83
81 480 Antoine Coulombe 15 km Male (40-44) 10/11 Classic 1:23:05.14 +46:49.07
82 414 Roland Tanglao 15 km Male (50-54) 13/15 Classic 1:25:11.06 +48:54.99
83 433 Rodney Lee 15 km Male (60-64) 10/11 Free 1:26:12.80 +49:56.73
84 447 Jordi Helsen 15 km Male (40-44) 11/11 Classic 1:26:36.60 +50:20.53
85 482 David Li 15 km Male (45-49) 14/14 Free 1:29:25.35 +53:09.28
86 429 William Welch 15 km Male (60-64) 11/11 Classic 1:32:12.74 +55:56.67
87 465 Peter Martin 15 km Male (50-54) 14/15 Classic 1:34:23.87 +58:07.80
88 532 Daniel Zeisler 15 km Male (Y13-15) 12/13 Free 1:43:08.27 +1:06:52.20
89 530 Davis Macdonald 15 km Male (Y13-15) 13/13 Classic 1:53:53.22 +1:17:37.15
90 473 Ron Macdonald 15 km Male (50-54) 15/15 Classic 1:55:00.70 +1:18:44.63
DSQ 430 Tony Peiffer 15 km Male (55-59) * Free *** ***
DNS 405 Mike Lamb 15 km Male (40-44) * Free *** ***
DNS 419 David Kozicz 15 km Male (45-49) * Free *** ***
DNS 422 Yariv Ben-Shooshan 15 km Male (40-44) * Free *** ***
DNS 423 Mike Teschke 15 km Male (35-39) * Free *** ***
DNS 459 Nick Nastic 15 km Male (50-54) * Free *** ***
DNS 466 Paul Rogers 15 km Male (45-49) * Free *** ***
DNS 478 Bryan Davies 15 km Male (35-39) * Free *** ***
DNS 501 Jeremie LeClair 15 km Male (Y16-17) * Classic *** ***
DNS 521 Guillaume Goudie 15 km Male (Y13-15) * Free *** ***
DNS 526 Adam Chmelauskas 15 km Male (Y13-15) * Free *** ***


Results are posted through an automated system by licenced clubs. For inquires about result corrections please contact the race organizer.

Copyright 2019 - Zone4 Systems zone4.ca       Privacy Policy     Delivery/Refund Policy     Terms of Service    Contact Zone4